createdAt,value
2023-03-15T00:43:37.437Z,42.26
2023-03-15T00:44:37.429Z,42.31
2023-03-15T00:45:37.459Z,42.25
2023-03-15T00:46:37.579Z,42.31
2023-03-15T00:47:37.491Z,42.29
2023-03-15T00:48:37.480Z,42.23
2023-03-15T00:49:37.486Z,42.32
2023-03-15T00:50:37.475Z,42.26
2023-03-15T00:51:37.493Z,42.29
2023-03-15T00:52:37.537Z,42.24
2023-03-15T00:53:37.508Z,42.26
2023-03-15T00:54:37.532Z,42.25
2023-03-15T00:55:37.519Z,42.26
2023-03-15T00:56:37.519Z,42.30
2023-03-15T00:57:37.521Z,42.28
2023-03-15T00:58:37.604Z,42.30
2023-03-15T00:59:37.554Z,42.28
2023-03-15T01:00:37.562Z,42.30
2023-03-15T01:01:38.117Z,42.33
2023-03-15T01:02:37.685Z,42.30
2023-03-15T01:03:37.615Z,42.25
2023-03-15T01:04:37.613Z,42.24
2023-03-15T01:05:37.636Z,42.26
2023-03-15T01:06:37.622Z,42.25
2023-03-15T01:07:37.636Z,42.24
2023-03-15T01:08:38.102Z,42.24
2023-03-15T01:09:37.641Z,42.28
2023-03-15T01:10:37.675Z,42.29
2023-03-15T01:11:37.682Z,42.34
2023-03-15T01:12:37.699Z,42.26
2023-03-15T01:13:37.719Z,42.25
2023-03-15T01:14:37.722Z,42.30
2023-03-15T01:15:37.730Z,42.26
2023-03-15T01:16:37.742Z,42.24
2023-03-15T01:17:37.746Z,42.26
2023-03-15T01:18:37.772Z,42.24
2023-03-15T01:19:37.775Z,42.25
2023-03-15T01:20:37.791Z,42.30
2023-03-15T01:21:37.859Z,42.26
2023-03-15T01:22:37.804Z,42.20
2023-03-15T01:23:37.812Z,42.22
2023-03-15T01:24:37.881Z,42.26
2023-03-15T01:25:37.842Z,42.22
2023-03-15T01:26:37.847Z,42.24
2023-03-15T01:27:37.859Z,42.21
2023-03-15T01:28:37.861Z,42.23
2023-03-15T01:29:37.958Z,42.25
2023-03-15T01:30:37.917Z,42.17
2023-03-15T01:31:37.995Z,42.25
2023-03-15T01:32:37.959Z,42.26
2023-03-15T01:33:37.933Z,42.22
2023-03-15T01:34:37.980Z,42.17
2023-03-15T01:35:38.154Z,42.22
2023-03-15T01:36:38.003Z,42.14
2023-03-15T01:37:38.007Z,42.21
2023-03-15T01:38:38.032Z,42.21
2023-03-15T01:39:38.021Z,42.25
2023-03-15T01:40:38.027Z,42.28
2023-03-15T01:41:38.094Z,42.23
2023-03-15T01:42:38.060Z,42.25
2023-03-15T01:43:38.091Z,42.24
2023-03-15T01:44:38.606Z,42.30
2023-03-15T01:45:38.138Z,42.22
2023-03-15T01:46:38.226Z,42.27
2023-03-15T01:47:38.157Z,42.23
2023-03-15T01:48:38.166Z,42.19
2023-03-15T01:49:38.182Z,42.21
2023-03-15T01:50:38.190Z,42.18
2023-03-15T01:51:38.196Z,42.23
2023-03-15T01:52:38.205Z,42.23
2023-03-15T01:53:38.198Z,42.22
2023-03-15T01:54:38.222Z,42.23
2023-03-15T01:55:38.237Z,42.23
2023-03-15T01:56:38.238Z,42.22
2023-03-15T01:57:38.304Z,42.25
2023-03-15T01:58:38.242Z,42.22
2023-03-15T01:59:38.317Z,42.24
2023-03-15T02:00:38.326Z,42.24
2023-03-15T02:01:38.275Z,42.28
2023-03-15T02:02:38.349Z,42.25
2023-03-15T02:03:38.297Z,42.23
2023-03-15T02:04:38.319Z,42.24
2023-03-15T02:05:38.319Z,42.22
2023-03-15T02:06:38.329Z,42.24
2023-03-15T02:07:39.124Z,42.24
2023-03-15T02:08:38.341Z,42.24
2023-03-15T02:09:38.357Z,42.24
2023-03-15T02:10:38.356Z,42.18
2023-03-15T02:11:38.362Z,42.23
2023-03-15T02:12:38.374Z,42.25
2023-03-15T02:13:39.109Z,42.28
2023-03-15T02:14:38.632Z,42.19
2023-03-15T02:15:38.386Z,42.25
2023-03-15T02:16:38.455Z,42.27
2023-03-15T02:17:38.410Z,42.34
2023-03-15T02:18:38.426Z,42.33
2023-03-15T02:19:38.423Z,42.33
2023-03-15T02:20:38.425Z,42.29
2023-03-15T02:21:38.432Z,42.31
2023-03-15T02:22:38.436Z,42.27
2023-03-15T02:23:38.438Z,42.26
2023-03-15T02:24:38.449Z,42.29
2023-03-15T02:25:38.455Z,42.26
2023-03-15T02:26:38.480Z,42.22
2023-03-15T02:27:38.495Z,42.30
2023-03-15T02:28:38.466Z,42.31
2023-03-15T02:29:38.489Z,42.27
2023-03-15T02:30:38.532Z,42.29
2023-03-15T02:31:38.580Z,42.29
2023-03-15T02:32:38.498Z,42.30
2023-03-15T02:33:38.505Z,42.29
2023-03-15T02:34:38.522Z,42.30
2023-03-15T02:35:38.580Z,42.26
2023-03-15T02:36:38.549Z,42.26
2023-03-15T02:37:39.126Z,42.26
2023-03-15T02:38:38.543Z,42.24
2023-03-15T02:39:38.556Z,42.26
2023-03-15T02:40:38.565Z,42.27
2023-03-15T02:41:38.558Z,42.31
2023-03-15T02:42:39.124Z,42.28
2023-03-15T02:43:38.570Z,42.34
2023-03-15T02:44:38.569Z,42.30
2023-03-15T02:45:38.595Z,42.22
2023-03-15T02:46:38.575Z,42.31
2023-03-15T02:47:38.581Z,42.31
2023-03-15T02:48:38.596Z,42.25
2023-03-15T02:49:38.624Z,42.27
2023-03-15T02:50:38.659Z,42.25
2023-03-15T02:51:38.617Z,42.29
2023-03-15T02:52:38.623Z,42.25
2023-03-15T02:53:38.627Z,42.27
2023-03-15T02:54:38.635Z,42.25
2023-03-15T02:55:38.641Z,42.24
2023-03-15T02:56:38.646Z,42.27
2023-03-15T02:57:38.649Z,42.26
2023-03-15T02:58:38.654Z,42.21
2023-03-15T02:59:38.649Z,42.27
2023-03-15T03:00:38.658Z,42.20
2023-03-15T03:01:38.727Z,42.23
2023-03-15T03:02:38.718Z,42.21
2023-03-15T03:03:38.667Z,42.23
2023-03-15T03:04:38.686Z,42.18
2023-03-15T03:05:38.686Z,42.17
2023-03-15T03:06:38.700Z,42.22
2023-03-15T03:07:38.720Z,42.22
2023-03-15T03:08:38.706Z,42.15
2023-03-15T03:09:38.706Z,42.20
2023-03-15T03:10:38.719Z,42.16
2023-03-15T03:11:39.163Z,42.13
2023-03-15T03:12:38.720Z,42.13
2023-03-15T03:13:38.718Z,42.16
2023-03-15T03:14:38.730Z,42.14
2023-03-15T03:15:38.736Z,42.06
2023-03-15T03:16:38.735Z,42.12
2023-03-15T03:17:38.741Z,42.18
2023-03-15T03:18:38.727Z,42.13
2023-03-15T03:19:38.719Z,42.08
2023-03-15T03:20:38.725Z,42.13
2023-03-15T03:21:38.816Z,42.12
2023-03-15T03:22:38.742Z,42.08
2023-03-15T03:23:38.756Z,42.11
2023-03-15T03:24:38.754Z,42.14
2023-03-15T03:25:38.750Z,42.07
2023-03-15T03:26:38.753Z,42.08
2023-03-15T03:27:38.764Z,42.08
2023-03-15T03:28:38.775Z,42.17
2023-03-15T03:29:38.784Z,42.14
2023-03-15T03:30:38.821Z,42.18
2023-03-15T03:31:38.802Z,42.13
2023-03-15T03:32:38.900Z,42.22
2023-03-15T03:33:38.797Z,42.17
2023-03-15T03:34:38.801Z,42.18
2023-03-15T03:35:38.847Z,42.13
2023-03-15T03:36:38.859Z,42.09
2023-03-15T03:37:38.921Z,42.15
2023-03-15T03:38:38.824Z,42.15
2023-03-15T03:39:38.838Z,42.18
2023-03-15T03:40:38.827Z,42.14
2023-03-15T03:41:38.826Z,42.20
2023-03-15T03:42:38.911Z,42.14
2023-03-15T03:43:38.830Z,42.14
2023-03-15T03:44:38.860Z,42.18
2023-03-15T03:45:38.857Z,42.10
2023-03-15T03:46:38.876Z,42.13
2023-03-15T03:47:38.859Z,42.12
2023-03-15T03:48:38.861Z,42.12
2023-03-15T03:49:38.870Z,42.14
2023-03-15T03:50:38.890Z,42.12
2023-03-15T03:51:38.884Z,42.10
2023-03-15T03:52:38.897Z,42.13
2023-03-15T03:53:38.879Z,42.14
2023-03-15T03:54:38.897Z,42.08
2023-03-15T03:55:38.951Z,42.08
2023-03-15T03:56:38.880Z,42.07
2023-03-15T03:57:39.143Z,42.09
2023-03-15T03:58:38.980Z,42.04
2023-03-15T03:59:38.899Z,42.13
2023-03-15T04:00:38.948Z,42.05
2023-03-15T04:01:38.916Z,42.04
2023-03-15T04:02:38.995Z,42.00
2023-03-15T04:03:38.925Z,41.96
2023-03-15T04:04:39.002Z,42.03
2023-03-15T04:05:38.932Z,42.08
2023-03-15T04:06:39.642Z,42.07
2023-03-15T04:07:38.956Z,42.07
2023-03-15T04:08:39.146Z,42.10
2023-03-15T04:09:38.939Z,42.07
2023-03-15T04:10:38.939Z,42.03
2023-03-15T04:11:38.933Z,42.00
2023-03-15T04:12:39.002Z,42.08
2023-03-15T04:13:38.946Z,41.98
2023-03-15T04:14:38.960Z,42.02
2023-03-15T04:15:39.052Z,41.98
2023-03-15T04:16:38.951Z,41.99
2023-03-15T04:17:38.949Z,41.92
2023-03-15T04:18:39.161Z,41.98
2023-03-15T04:19:38.979Z,41.96
2023-03-15T04:20:38.967Z,41.93
2023-03-15T04:21:39.823Z,41.96
2023-03-15T04:22:38.970Z,41.97
2023-03-15T04:23:38.978Z,41.94
2023-03-15T04:24:38.976Z,41.96
2023-03-15T04:25:39.046Z,42.00
2023-03-15T04:26:38.989Z,41.95
2023-03-15T04:27:38.999Z,41.94
2023-03-15T04:28:39.002Z,41.91
2023-03-15T04:29:39.011Z,41.95
2023-03-15T04:30:39.026Z,41.98
2023-03-15T04:31:39.061Z,42.00
2023-03-15T04:32:39.074Z,41.97
2023-03-15T04:33:39.041Z,41.95
2023-03-15T04:34:39.055Z,41.90
2023-03-15T04:35:39.106Z,41.93
2023-03-15T04:36:39.092Z,41.96
2023-03-15T04:37:39.108Z,41.98
2023-03-15T04:38:39.103Z,41.97
2023-03-15T04:39:39.125Z,42.01
2023-03-15T04:40:39.131Z,41.92
2023-03-15T04:41:39.106Z,41.96
2023-03-15T04:42:39.108Z,41.95
2023-03-15T04:43:39.120Z,41.97
2023-03-15T04:44:39.181Z,42.01
2023-03-15T04:45:39.134Z,41.98
2023-03-15T04:46:39.172Z,41.96
2023-03-15T04:47:39.137Z,42.00
2023-03-15T04:48:39.144Z,41.93
2023-03-15T04:49:39.161Z,41.94
2023-03-15T04:50:39.162Z,42.00
2023-03-15T04:51:39.163Z,41.96
2023-03-15T04:52:39.164Z,41.96
2023-03-15T04:53:39.244Z,41.96
2023-03-15T04:54:39.203Z,41.93
2023-03-15T04:55:39.260Z,41.96
2023-03-15T04:56:39.208Z,41.94
2023-03-15T04:57:39.209Z,41.97
2023-03-15T04:58:39.219Z,42.01
2023-03-15T04:59:39.223Z,41.96
2023-03-15T05:00:39.298Z,42.02
2023-03-15T05:01:39.263Z,42.00
2023-03-15T05:02:39.242Z,41.95
2023-03-15T05:03:39.272Z,41.96
2023-03-15T05:04:39.256Z,41.89
2023-03-15T05:05:39.264Z,41.94
2023-03-15T05:06:39.283Z,41.89
2023-03-15T05:07:39.289Z,41.93
2023-03-15T05:08:39.311Z,42.01
2023-03-15T05:09:40.074Z,41.94
2023-03-15T05:10:39.336Z,41.97
2023-03-15T05:11:39.327Z,41.93
2023-03-15T05:12:39.342Z,41.94
2023-03-15T05:13:39.348Z,41.87
2023-03-15T05:14:39.361Z,41.91
2023-03-15T05:15:39.376Z,41.91
2023-03-15T05:16:39.421Z,41.89
2023-03-15T05:17:39.374Z,41.88
2023-03-15T05:18:39.444Z,41.91
2023-03-15T05:19:39.398Z,41.90
2023-03-15T05:20:39.407Z,41.91
2023-03-15T05:21:39.411Z,41.92
2023-03-15T05:22:39.420Z,41.90
2023-03-15T05:23:39.429Z,41.87
2023-03-15T05:24:39.436Z,41.91
2023-03-15T05:25:39.438Z,41.90
2023-03-15T05:26:39.455Z,41.93
2023-03-15T05:27:39.477Z,41.89
2023-03-15T05:28:39.494Z,41.90
2023-03-15T05:29:40.173Z,41.99
2023-03-15T05:30:39.488Z,41.88
2023-03-15T05:31:39.555Z,41.93
2023-03-15T05:32:39.679Z,41.94
2023-03-15T05:33:39.530Z,41.89
2023-03-15T05:34:39.548Z,41.87
2023-03-15T05:35:39.644Z,41.84
2023-03-15T05:36:39.699Z,41.85
2023-03-15T05:37:39.620Z,41.89
2023-03-15T05:38:39.574Z,41.94
2023-03-15T05:39:39.587Z,41.91
2023-03-15T05:40:39.595Z,41.84
2023-03-15T05:41:39.622Z,41.91
2023-03-15T05:42:39.628Z,41.85
2023-03-15T05:43:39.634Z,41.89
2023-03-15T05:44:39.642Z,41.89
2023-03-15T05:45:39.727Z,41.92
2023-03-15T05:46:39.669Z,41.90
2023-03-15T05:47:39.826Z,41.91
2023-03-15T05:48:39.685Z,41.92
2023-03-15T05:49:39.695Z,41.94
2023-03-15T05:50:39.701Z,41.93
2023-03-15T05:51:39.739Z,41.86
2023-03-15T05:52:39.735Z,41.87
2023-03-15T05:53:39.748Z,41.84
2023-03-15T05:54:39.747Z,41.87
2023-03-15T05:55:40.607Z,41.91
2023-03-15T05:56:39.758Z,41.97
2023-03-15T05:57:39.769Z,41.98
2023-03-15T05:58:39.774Z,41.91
2023-03-15T05:59:39.812Z,41.90
2023-03-15T06:00:39.785Z,41.94
2023-03-15T06:01:40.680Z,41.87
2023-03-15T06:02:39.798Z,41.91
2023-03-15T06:03:39.917Z,41.90
2023-03-15T06:04:39.796Z,41.86
2023-03-15T06:05:39.880Z,41.96
2023-03-15T06:06:39.864Z,41.80
2023-03-15T06:07:39.810Z,41.86
2023-03-15T06:08:39.821Z,41.82
2023-03-15T06:09:39.850Z,41.85
2023-03-15T06:10:39.842Z,41.86
2023-03-15T06:11:40.693Z,41.88
2023-03-15T06:12:39.867Z,41.86
2023-03-15T06:13:39.893Z,41.91
2023-03-15T06:14:39.909Z,41.91
2023-03-15T06:15:39.988Z,41.90
2023-03-15T06:16:39.964Z,41.85
2023-03-15T06:17:39.933Z,41.95
2023-03-15T06:18:40.019Z,41.91
2023-03-15T06:19:39.958Z,41.87
2023-03-15T06:20:39.948Z,41.96
2023-03-15T06:21:39.959Z,41.88
2023-03-15T06:22:39.969Z,41.91
2023-03-15T06:23:40.019Z,41.94
2023-03-15T06:24:40.017Z,42.02
2023-03-15T06:25:40.691Z,42.31
2023-03-15T06:26:40.014Z,42.29
2023-03-15T06:27:40.011Z,42.44
2023-03-15T06:28:41.708Z,42.54
2023-03-15T06:29:40.032Z,42.72
2023-03-15T06:30:40.744Z,42.69
2023-03-15T06:31:40.034Z,42.95
2023-03-15T06:32:40.026Z,43.10
2023-03-15T06:33:40.054Z,43.16
2023-03-15T06:35:40.057Z,43.27
2023-03-15T06:36:40.018Z,43.21
2023-03-15T06:39:40.044Z,43.56
2023-03-15T06:40:39.982Z,43.61
2023-03-15T06:41:40.048Z,43.73
2023-03-15T06:42:39.982Z,43.79
2023-03-15T06:43:40.062Z,43.79
2023-03-15T06:50:47.467Z,44.14
2023-03-15T06:51:40.936Z,44.25
2023-03-15T06:53:41.775Z,44.33
2023-03-15T06:56:40.696Z,44.45
2023-03-15T07:00:42.712Z,44.57
2023-03-15T07:11:40.785Z,44.83
2023-03-15T07:12:40.712Z,44.87
2023-03-15T07:14:40.804Z,44.97
2023-03-15T07:17:42.218Z,44.98
2023-03-15T07:20:40.734Z,45.15
2023-03-15T07:24:40.767Z,45.21
2023-03-15T07:25:54.057Z,45.82
2023-03-15T07:26:40.816Z,45.65
2023-03-15T07:27:41.739Z,46.12
2023-03-15T07:28:43.758Z,46.28
2023-03-15T07:30:42.718Z,47.35
2023-03-15T07:34:40.717Z,48.27
2023-03-15T07:52:40.785Z,51.53
2023-03-15T08:06:41.270Z,52.19
2023-03-15T09:04:40.832Z,50.53
2023-03-15T09:05:40.740Z,50.63
2023-03-15T10:06:40.633Z,45.17
2023-03-15T10:07:40.774Z,45.09
2023-03-15T10:08:40.740Z,44.99
2023-03-15T10:09:40.811Z,44.91
2023-03-15T10:10:40.862Z,44.93
2023-03-15T10:11:40.929Z,44.87
2023-03-15T10:12:40.976Z,44.90
2023-03-15T10:13:41.032Z,44.87
2023-03-15T10:14:41.109Z,44.80
2023-03-15T10:15:41.188Z,44.80
2023-03-15T10:16:41.196Z,44.77
2023-03-15T10:17:41.277Z,44.58
2023-03-15T10:18:41.324Z,44.34
2023-03-15T10:19:41.366Z,44.22
2023-03-15T10:20:41.423Z,44.01
2023-03-15T10:21:41.470Z,43.90
2023-03-15T10:22:41.541Z,43.95
2023-03-15T10:23:42.263Z,43.99
2023-03-15T10:24:41.771Z,43.55
2023-03-15T10:25:41.816Z,43.91
2023-03-15T10:26:41.849Z,43.78
2023-03-15T10:27:41.967Z,43.89
2023-03-15T10:28:41.911Z,43.76
2023-03-15T10:29:41.965Z,43.85
2023-03-15T10:30:42.011Z,43.87
2023-03-15T10:31:44.786Z,44.01
2023-03-15T10:32:42.140Z,43.92
2023-03-15T10:33:42.045Z,43.95
2023-03-15T10:34:42.042Z,43.96
2023-03-15T10:35:42.052Z,44.06
2023-03-15T10:36:42.802Z,44.05
2023-03-15T10:37:42.005Z,43.98
2023-03-15T10:38:42.025Z,43.96
2023-03-15T10:39:42.725Z,43.89
2023-03-15T10:40:42.025Z,43.88
2023-03-15T10:41:41.965Z,43.83
2023-03-15T10:42:41.943Z,43.93
2023-03-15T10:43:41.941Z,43.88
2023-03-15T10:44:41.913Z,43.78
2023-03-15T10:45:41.913Z,43.80
2023-03-15T10:46:42.024Z,43.73
2023-03-15T10:47:45.249Z,43.68
2023-03-15T10:48:42.888Z,43.61
2023-03-15T10:49:42.762Z,43.48
2023-03-15T10:50:41.843Z,43.50
2023-03-15T10:51:41.848Z,43.47
2023-03-15T10:52:41.957Z,43.56
2023-03-15T10:53:41.821Z,43.37
2023-03-15T10:54:41.816Z,43.43
2023-03-15T10:55:41.802Z,43.35
2023-03-15T10:56:41.794Z,43.29
2023-03-15T10:57:41.881Z,43.33
2023-03-15T10:58:41.779Z,43.28
2023-03-15T10:59:41.808Z,43.29
2023-03-15T11:00:41.858Z,43.19
2023-03-15T11:01:41.968Z,43.10
2023-03-15T11:02:42.083Z,43.04
2023-03-15T11:03:42.028Z,43.07
2023-03-15T11:04:42.065Z,42.95
2023-03-15T11:05:42.106Z,42.96
2023-03-15T11:06:42.160Z,42.84
2023-03-15T11:07:42.213Z,42.85
2023-03-15T11:08:42.276Z,42.89
2023-03-15T11:09:42.309Z,42.93
2023-03-15T11:10:42.360Z,42.80
2023-03-15T11:11:42.427Z,42.79
2023-03-15T11:12:42.473Z,42.72
2023-03-15T11:13:42.553Z,42.73
2023-03-15T11:14:43.273Z,42.70
2023-03-15T11:15:42.611Z,42.70
2023-03-15T11:16:43.322Z,42.57
2023-03-15T11:17:42.730Z,42.61
2023-03-15T11:18:42.833Z,42.59
2023-03-15T11:19:43.860Z,42.48
2023-03-15T11:20:42.949Z,42.47
2023-03-15T11:21:42.908Z,42.53
2023-03-15T11:23:43.020Z,42.45
2023-03-15T11:24:43.139Z,42.36
2023-03-15T11:25:43.131Z,42.33
2023-03-15T11:26:43.170Z,42.35
2023-03-15T11:27:43.241Z,42.29
2023-03-15T11:28:43.285Z,42.25
2023-03-15T11:29:43.343Z,42.32
2023-03-15T11:30:43.384Z,42.23
2023-03-15T14:01:50.668Z,39.63
2023-03-15T14:02:50.749Z,39.60
2023-03-15T14:03:50.743Z,39.58
2023-03-15T14:04:50.802Z,39.63
2023-03-15T14:05:50.856Z,39.65
2023-03-15T14:06:50.915Z,39.63
2023-03-15T14:07:50.968Z,39.58
2023-03-15T14:08:51.003Z,39.64
2023-03-15T14:09:51.033Z,39.54
2023-03-15T14:10:51.087Z,39.58
2023-03-15T14:11:51.145Z,39.56
2023-03-15T14:12:51.202Z,39.59
2023-03-15T14:13:51.255Z,39.49
2023-03-15T14:14:51.317Z,39.50
2023-03-15T14:15:51.400Z,39.39
2023-03-15T14:17:04.212Z,39.49
2023-03-15T14:18:51.397Z,39.44
2023-03-15T14:20:51.364Z,39.51
2023-03-15T14:21:51.347Z,39.46
2023-03-15T14:22:52.359Z,39.45
2023-03-15T14:23:51.326Z,39.49
2023-03-15T14:24:51.305Z,39.49
2023-03-15T14:25:51.287Z,39.45
2023-03-15T14:26:51.297Z,39.40
2023-03-15T14:27:51.357Z,39.45
2023-03-15T14:28:51.388Z,39.39
2023-03-15T16:51:01.368Z,40.53
2023-03-15T17:16:01.418Z,40.39
2023-03-15T17:20:00.689Z,40.29
2023-03-15T17:21:00.746Z,40.31
2023-03-15T17:22:00.737Z,40.31
2023-03-15T17:23:02.657Z,40.30
2023-03-15T17:24:00.795Z,40.27
2023-03-15T17:25:00.792Z,40.30
2023-03-15T17:26:00.866Z,40.33
2023-03-15T17:27:00.829Z,40.37
2023-03-15T17:28:00.780Z,40.32
2023-03-15T17:29:00.786Z,40.30
2023-03-15T17:30:01.021Z,40.28
2023-03-15T17:31:23.223Z,40.27
2023-03-15T17:32:01.855Z,40.23
2023-03-15T17:33:00.848Z,40.26
2023-03-15T17:34:00.761Z,40.22
2023-03-15T17:35:00.765Z,40.27
2023-03-15T17:36:00.812Z,40.25
2023-03-15T17:37:00.749Z,40.22
2023-03-15T17:38:00.765Z,40.21
2023-03-15T17:39:00.824Z,40.17
2023-03-15T17:40:00.823Z,40.19
2023-03-15T17:41:00.921Z,40.21
2023-03-15T17:42:00.826Z,40.22
2023-03-15T17:43:00.913Z,40.23
2023-03-15T17:44:00.937Z,40.26
2023-03-15T17:45:01.082Z,40.21
2023-03-15T17:46:01.048Z,40.25
2023-03-15T17:47:02.520Z,40.19
2023-03-15T17:48:01.112Z,40.22
2023-03-15T17:49:01.096Z,40.22
2023-03-15T17:50:01.092Z,40.19
2023-03-15T17:51:01.084Z,40.18
2023-03-15T17:52:01.078Z,40.16
2023-03-15T17:53:01.078Z,40.17
2023-03-15T17:54:01.064Z,40.16
2023-03-15T17:55:01.078Z,40.19
2023-03-15T17:56:01.069Z,40.18
2023-03-15T17:57:01.063Z,40.18
2023-03-15T17:58:01.073Z,40.13
2023-03-15T17:59:01.103Z,40.18
2023-03-15T18:00:01.171Z,40.18
2023-03-15T18:01:01.117Z,40.07
2023-03-15T18:02:01.074Z,40.07
2023-03-15T18:03:01.090Z,40.13
2023-03-15T18:04:01.159Z,40.21
2023-03-15T18:05:01.074Z,40.18
2023-03-15T18:06:01.063Z,40.13
2023-03-15T18:07:01.062Z,40.08
2023-03-15T18:08:01.093Z,40.10
2023-03-15T18:09:01.046Z,40.09
2023-03-15T18:10:01.043Z,40.13
2023-03-15T18:11:01.042Z,40.10
2023-03-15T18:12:01.043Z,40.13
2023-03-15T18:13:01.049Z,40.06
2023-03-15T18:14:01.054Z,40.10
2023-03-15T18:15:01.131Z,40.13
2023-03-15T18:16:01.056Z,40.12
2023-03-15T18:17:01.050Z,40.06
2023-03-15T18:18:01.045Z,40.13
2023-03-15T18:19:01.065Z,40.12
2023-03-15T18:20:01.065Z,40.13
2023-03-15T18:21:01.072Z,40.10
2023-03-15T18:22:01.057Z,40.09
2023-03-15T18:23:01.065Z,40.09
2023-03-15T18:24:01.072Z,40.08
2023-03-15T18:25:01.082Z,40.12
2023-03-15T18:26:01.091Z,40.14
2023-03-15T18:27:01.093Z,40.10
2023-03-15T18:28:01.115Z,40.14
2023-03-15T18:29:01.095Z,40.09
2023-03-15T18:30:01.251Z,40.13
2023-03-15T18:31:01.201Z,40.05
2023-03-15T18:32:01.353Z,40.04
2023-03-15T18:33:01.422Z,40.05
2023-03-15T18:34:01.397Z,40.05
2023-03-15T18:35:01.444Z,39.97
2023-03-15T18:36:01.558Z,40.05
2023-03-15T18:37:01.551Z,40.07
2023-03-15T18:38:01.628Z,40.05
2023-03-15T18:39:01.707Z,40.04
2023-03-15T18:40:01.750Z,40.02
2023-03-15T18:41:01.823Z,39.99
2023-03-15T18:42:01.909Z,39.99
2023-03-15T18:43:01.942Z,39.98
2023-03-15T18:44:02.008Z,39.99
2023-03-15T18:45:02.084Z,40.02
2023-03-15T18:46:02.916Z,40.00
2023-03-15T18:47:02.167Z,39.99
2023-03-15T18:48:02.276Z,40.03
2023-03-15T18:49:02.276Z,40.04
2023-03-15T18:50:10.016Z,40.00
2023-03-15T18:51:03.333Z,40.03
2023-03-15T18:52:02.305Z,40.03
2023-03-15T18:53:03.932Z,40.07
2023-03-15T18:54:02.315Z,40.00
2023-03-15T18:55:02.308Z,39.95
2023-03-15T18:56:02.318Z,39.96
2023-03-15T18:57:02.329Z,39.97
2023-03-15T18:58:02.317Z,40.00
2023-03-15T18:59:02.312Z,40.00
2023-03-15T19:00:02.315Z,39.99
2023-03-15T19:01:02.353Z,39.97
2023-03-15T19:02:02.377Z,39.91
2023-03-15T19:03:02.312Z,40.00
2023-03-15T19:04:02.313Z,40.01
2023-03-15T19:05:02.333Z,39.99
2023-03-15T19:06:02.325Z,39.97
2023-03-15T19:07:02.302Z,39.99
2023-03-15T19:08:02.298Z,39.97
2023-03-15T19:09:02.301Z,39.95
2023-03-15T19:10:02.312Z,40.01
2023-03-15T19:11:02.295Z,39.95
2023-03-15T19:12:02.278Z,39.93
2023-03-15T19:13:04.469Z,39.92
2023-03-15T19:14:02.367Z,39.95
2023-03-15T19:15:02.351Z,39.94
2023-03-15T19:16:02.409Z,39.94
2023-03-15T19:17:02.504Z,39.86
2023-03-15T19:18:02.462Z,39.92
2023-03-15T19:19:02.461Z,39.95
2023-03-15T19:20:02.490Z,39.95
2023-03-15T19:21:02.523Z,39.92
2023-03-15T19:22:02.527Z,39.93
2023-03-15T19:23:02.568Z,39.99
2023-03-15T19:24:02.597Z,39.91
2023-03-15T19:25:02.681Z,39.96
2023-03-15T19:26:02.657Z,39.96
2023-03-15T19:27:03.434Z,40.00
2023-03-15T19:28:02.676Z,39.92
2023-03-15T19:29:02.706Z,39.92
2023-03-15T19:30:02.736Z,39.95
2023-03-15T19:31:02.785Z,39.95
2023-03-15T19:32:02.790Z,39.98
2023-03-15T19:33:02.874Z,39.96
2023-03-15T19:34:02.782Z,39.96
2023-03-15T19:35:02.794Z,39.91
2023-03-15T19:36:02.793Z,39.92
2023-03-15T19:37:02.796Z,39.96
2023-03-15T19:38:02.780Z,39.96
2023-03-15T19:39:02.799Z,39.92
2023-03-15T19:40:02.832Z,39.91
2023-03-15T19:41:02.860Z,39.93
2023-03-15T19:42:02.886Z,39.96
2023-03-15T19:43:02.984Z,39.91
2023-03-15T19:44:02.983Z,39.90
2023-03-15T19:45:03.049Z,39.93
2023-03-15T19:46:03.254Z,39.92
2023-03-15T19:47:03.140Z,39.88
2023-03-15T19:48:03.178Z,39.90
2023-03-15T19:49:03.251Z,39.95
2023-03-15T19:50:03.265Z,39.91
